sensor_id;sensor_type;location;lat;lon;timestamp;P1;durP1;ratioP1;P2;durP2;ratioP2
55762;SDS011;42162;51.958;5.426;2024-01-11T00:01:23;17.60;;;9.73;;
55762;SDS011;42162;51.958;5.426;2024-01-11T00:03:51;18.60;;;9.30;;
55762;SDS011;42162;51.958;5.426;2024-01-11T00:06:18;19.58;;;9.57;;
55762;SDS011;42162;51.958;5.426;2024-01-11T00:08:45;20.85;;;10.40;;
55762;SDS011;42162;51.958;5.426;2024-01-11T00:11:12;15.25;;;9.95;;
55762;SDS011;42162;51.958;5.426;2024-01-11T00:13:43;17.08;;;9.52;;
55762;SDS011;42162;51.958;5.426;2024-01-11T00:16:11;20.80;;;10.82;;
55762;SDS011;42162;51.958;5.426;2024-01-11T00:18:38;24.92;;;11.65;;
55762;SDS011;42162;51.958;5.426;2024-01-11T00:21:05;20.95;;;10.50;;
55762;SDS011;42162;51.958;5.426;2024-01-11T00:23:32;25.80;;;10.98;;
55762;SDS011;42162;51.958;5.426;2024-01-11T00:26:00;18.67;;;9.80;;
55762;SDS011;42162;51.958;5.426;2024-01-11T00:28:27;22.30;;;11.93;;
55762;SDS011;42162;51.958;5.426;2024-01-11T00:30:54;17.67;;;9.52;;
55762;SDS011;42162;51.958;5.426;2024-01-11T00:33:21;17.48;;;11.45;;
55762;SDS011;42162;51.958;5.426;2024-01-11T04:01:17;16.25;;;10.50;;
55762;SDS011;42162;51.958;5.426;2024-01-11T04:03:44;14.65;;;9.82;;
55762;SDS011;42162;51.958;5.426;2024-01-11T04:06:21;18.40;;;10.30;;
55762;SDS011;42162;51.958;5.426;2024-01-11T04:08:49;16.35;;;9.88;;
55762;SDS011;42162;51.958;5.426;2024-01-11T04:11:17;16.10;;;9.98;;
55762;SDS011;42162;51.958;5.426;2024-01-11T04:13:44;18.65;;;9.80;;
55762;SDS011;42162;51.958;5.426;2024-01-11T04:16:11;27.67;;;9.43;;
55762;SDS011;42162;51.958;5.426;2024-01-11T04:18:38;15.77;;;10.75;;
55762;SDS011;42162;51.958;5.426;2024-01-11T04:21:06;21.23;;;10.75;;
55762;SDS011;42162;51.958;5.426;2024-01-11T04:23:33;13.88;;;9.25;;
55762;SDS011;42162;51.958;5.426;2024-01-11T04:26:00;16.15;;;10.18;;
55762;SDS011;42162;51.958;5.426;2024-01-11T04:28:27;19.02;;;9.57;;
55762;SDS011;42162;51.958;5.426;2024-01-11T04:30:54;16.75;;;9.45;;
55762;SDS011;42162;51.958;5.426;2024-01-11T04:33:22;19.23;;;10.45;;
55762;SDS011;42162;51.958;5.426;2024-01-11T04:35:49;16.17;;;9.82;;
55762;SDS011;42162;51.958;5.426;2024-01-11T04:38:16;16.15;;;9.40;;
55762;SDS011;42162;51.958;5.426;2024-01-11T04:40:43;18.88;;;11.40;;
55762;SDS011;42162;51.958;5.426;2024-01-11T04:43:10;15.43;;;9.38;;
55762;SDS011;42162;51.958;5.426;2024-01-11T04:45:38;19.88;;;10.65;;
55762;SDS011;42162;51.958;5.426;2024-01-11T04:48:05;16.65;;;11.15;;
55762;SDS011;42162;51.958;5.426;2024-01-11T04:50:32;19.00;;;12.13;;
55762;SDS011;42162;51.958;5.426;2024-01-11T04:52:59;22.77;;;10.85;;
55762;SDS011;42162;51.958;5.426;2024-01-11T04:55:27;15.38;;;9.98;;
55762;SDS011;42162;51.958;5.426;2024-01-11T04:57:54;17.38;;;10.68;;
55762;SDS011;42162;51.958;5.426;2024-01-11T05:00:21;23.58;;;10.95;;
55762;SDS011;42162;51.958;5.426;2024-01-11T05:02:48;19.40;;;10.93;;
55762;SDS011;42162;51.958;5.426;2024-01-11T05:05:15;18.77;;;11.07;;
55762;SDS011;42162;51.958;5.426;2024-01-11T05:07:43;18.90;;;10.93;;
55762;SDS011;42162;51.958;5.426;2024-01-11T05:10:10;21.48;;;12.80;;
55762;SDS011;42162;51.958;5.426;2024-01-11T05:12:37;21.05;;;11.93;;
55762;SDS011;42162;51.958;5.426;2024-01-11T05:15:08;22.92;;;12.27;;
55762;SDS011;42162;51.958;5.426;2024-01-11T05:17:35;18.42;;;11.23;;
55762;SDS011;42162;51.958;5.426;2024-01-11T05:20:02;18.20;;;11.57;;
55762;SDS011;42162;51.958;5.426;2024-01-11T05:22:30;19.05;;;11.82;;
55762;SDS011;42162;51.958;5.426;2024-01-11T05:24:57;25.02;;;13.23;;
55762;SDS011;42162;51.958;5.426;2024-01-11T05:27:24;20.63;;;13.00;;
55762;SDS011;42162;51.958;5.426;2024-01-11T05:29:51;21.40;;;12.75;;
55762;SDS011;42162;51.958;5.426;2024-01-11T05:32:18;21.40;;;12.70;;
55762;SDS011;42162;51.958;5.426;2024-01-11T05:34:46;19.95;;;11.77;;
55762;SDS011;42162;51.958;5.426;2024-01-11T05:37:13;25.42;;;12.90;;
55762;SDS011;42162;51.958;5.426;2024-01-11T05:39:40;22.35;;;12.13;;
55762;SDS011;42162;51.958;5.426;2024-01-11T05:42:07;21.05;;;12.90;;
55762;SDS011;42162;51.958;5.426;2024-01-11T05:44:36;22.77;;;14.05;;
55762;SDS011;42162;51.958;5.426;2024-01-11T05:47:03;22.65;;;12.80;;
55762;SDS011;42162;51.958;5.426;2024-01-11T05:49:30;30.67;;;13.52;;
55762;SDS011;42162;51.958;5.426;2024-01-11T05:51:57;22.92;;;13.63;;
55762;SDS011;42162;51.958;5.426;2024-01-11T05:54:24;25.08;;;13.82;;
55762;SDS011;42162;51.958;5.426;2024-01-11T05:56:53;20.67;;;12.00;;
55762;SDS011;42162;51.958;5.426;2024-01-11T05:59:22;24.90;;;13.90;;
55762;SDS011;42162;51.958;5.426;2024-01-11T06:01:50;20.63;;;13.57;;
55762;SDS011;42162;51.958;5.426;2024-01-11T06:04:17;24.98;;;14.35;;
55762;SDS011;42162;51.958;5.426;2024-01-11T06:06:44;23.35;;;13.80;;
55762;SDS011;42162;51.958;5.426;2024-01-11T06:09:11;28.75;;;15.05;;
55762;SDS011;42162;51.958;5.426;2024-01-11T06:11:38;20.00;;;13.95;;
55762;SDS011;42162;51.958;5.426;2024-01-11T06:14:06;22.48;;;14.27;;
55762;SDS011;42162;51.958;5.426;2024-01-11T06:16:34;23.55;;;13.80;;
55762;SDS011;42162;51.958;5.426;2024-01-11T06:19:01;25.08;;;13.18;;
55762;SDS011;42162;51.958;5.426;2024-01-11T06:21:28;23.98;;;13.18;;
55762;SDS011;42162;51.958;5.426;2024-01-11T06:23:55;26.52;;;14.15;;
55762;SDS011;42162;51.958;5.426;2024-01-11T06:26:22;19.52;;;12.48;;
55762;SDS011;42162;51.958;5.426;2024-01-11T06:28:50;28.75;;;14.65;;
55762;SDS011;42162;51.958;5.426;2024-01-11T06:31:17;28.15;;;15.70;;
55762;SDS011;42162;51.958;5.426;2024-01-11T06:33:45;25.50;;;15.15;;
55762;SDS011;42162;51.958;5.426;2024-01-11T06:36:16;27.33;;;15.13;;
55762;SDS011;42162;51.958;5.426;2024-01-11T06:38:46;19.80;;;13.32;;
55762;SDS011;42162;51.958;5.426;2024-01-11T06:41:13;25.02;;;14.00;;
55762;SDS011;42162;51.958;5.426;2024-01-11T06:43:41;23.42;;;14.23;;
55762;SDS011;42162;51.958;5.426;2024-01-11T06:46:08;26.73;;;15.18;;
55762;SDS011;42162;51.958;5.426;2024-01-11T06:48:37;22.52;;;14.55;;
55762;SDS011;42162;51.958;5.426;2024-01-11T06:51:07;21.25;;;14.20;;
55762;SDS011;42162;51.958;5.426;2024-01-11T06:53:36;30.00;;;15.10;;
55762;SDS011;42162;51.958;5.426;2024-01-11T06:56:12;42.92;;;16.15;;
55762;SDS011;42162;51.958;5.426;2024-01-11T06:58:40;28.10;;;16.58;;
55762;SDS011;42162;51.958;5.426;2024-01-11T07:01:07;22.70;;;15.18;;
55762;SDS011;42162;51.958;5.426;2024-01-11T07:03:34;24.02;;;15.88;;
55762;SDS011;42162;51.958;5.426;2024-01-11T07:06:02;44.42;;;21.63;;
55762;SDS011;42162;51.958;5.426;2024-01-11T07:08:30;33.78;;;18.27;;
55762;SDS011;42162;51.958;5.426;2024-01-11T07:11:02;26.83;;;15.48;;
55762;SDS011;42162;51.958;5.426;2024-01-11T07:13:30;26.45;;;15.65;;
55762;SDS011;42162;51.958;5.426;2024-01-11T07:15:58;24.55;;;14.82;;
55762;SDS011;42162;51.958;5.426;2024-01-11T07:18:25;25.25;;;14.88;;
55762;SDS011;42162;51.958;5.426;2024-01-11T07:20:55;25.98;;;16.20;;
55762;SDS011;42162;51.958;5.426;2024-01-11T07:23:23;25.02;;;14.98;;
55762;SDS011;42162;51.958;5.426;2024-01-11T07:25:51;25.08;;;15.70;;
55762;SDS011;42162;51.958;5.426;2024-01-11T07:28:18;29.02;;;16.77;;
55762;SDS011;42162;51.958;5.426;2024-01-11T07:30:46;27.05;;;16.02;;
55762;SDS011;42162;51.958;5.426;2024-01-11T07:33:13;28.58;;;15.48;;
55762;SDS011;42162;51.958;5.426;2024-01-11T07:35:41;27.42;;;15.52;;
55762;SDS011;42162;51.958;5.426;2024-01-11T07:38:08;27.95;;;15.95;;
55762;SDS011;42162;51.958;5.426;2024-01-11T07:40:35;24.92;;;15.60;;
55762;SDS011;42162;51.958;5.426;2024-01-11T07:43:04;28.63;;;15.52;;
55762;SDS011;42162;51.958;5.426;2024-01-11T07:45:31;26.40;;;15.90;;
55762;SDS011;42162;51.958;5.426;2024-01-11T07:47:59;29.00;;;17.40;;
55762;SDS011;42162;51.958;5.426;2024-01-11T07:50:27;30.20;;;18.25;;
55762;SDS011;42162;51.958;5.426;2024-01-11T07:52:54;32.13;;;16.60;;
55762;SDS011;42162;51.958;5.426;2024-01-11T07:55:23;29.90;;;17.70;;
55762;SDS011;42162;51.958;5.426;2024-01-11T07:57:50;26.60;;;17.15;;
55762;SDS011;42162;51.958;5.426;2024-01-11T08:00:18;28.73;;;15.98;;
55762;SDS011;42162;51.958;5.426;2024-01-11T08:02:45;41.42;;;17.73;;
55762;SDS011;42162;51.958;5.426;2024-01-11T08:05:12;30.65;;;18.85;;
55762;SDS011;42162;51.958;5.426;2024-01-11T08:07:39;29.02;;;17.83;;
55762;SDS011;42162;51.958;5.426;2024-01-11T08:10:09;28.98;;;17.83;;
55762;SDS011;42162;51.958;5.426;2024-01-11T08:12:36;32.58;;;19.20;;
55762;SDS011;42162;51.958;5.426;2024-01-11T08:15:04;38.90;;;18.42;;
55762;SDS011;42162;51.958;5.426;2024-01-11T08:17:31;29.80;;;17.20;;
55762;SDS011;42162;51.958;5.426;2024-01-11T08:19:59;25.70;;;16.35;;
55762;SDS011;42162;51.958;5.426;2024-01-11T08:22:26;26.15;;;18.25;;
55762;SDS011;42162;51.958;5.426;2024-01-11T08:24:55;34.35;;;19.02;;
55762;SDS011;42162;51.958;5.426;2024-01-11T08:27:22;29.67;;;17.75;;
55762;SDS011;42162;51.958;5.426;2024-01-11T08:29:53;29.45;;;18.73;;
55762;SDS011;42162;51.958;5.426;2024-01-11T08:32:20;25.45;;;17.45;;
55762;SDS011;42162;51.958;5.426;2024-01-11T08:34:57;29.52;;;17.92;;
55762;SDS011;42162;51.958;5.426;2024-01-11T08:37:25;28.88;;;17.48;;
55762;SDS011;42162;51.958;5.426;2024-01-11T08:39:52;30.92;;;18.52;;
55762;SDS011;42162;51.958;5.426;2024-01-11T08:42:19;31.55;;;19.58;;
55762;SDS011;42162;51.958;5.426;2024-01-11T08:44:46;34.78;;;18.45;;
55762;SDS011;42162;51.958;5.426;2024-01-11T08:47:14;30.55;;;18.67;;
55762;SDS011;42162;51.958;5.426;2024-01-11T08:49:41;34.42;;;19.38;;
55762;SDS011;42162;51.958;5.426;2024-01-11T08:52:09;34.05;;;20.33;;
55762;SDS011;42162;51.958;5.426;2024-01-11T08:54:36;34.00;;;18.92;;
55762;SDS011;42162;51.958;5.426;2024-01-11T08:57:04;31.10;;;18.10;;
55762;SDS011;42162;51.958;5.426;2024-01-11T08:59:31;28.63;;;17.73;;
55762;SDS011;42162;51.958;5.426;2024-01-11T09:01:59;35.50;;;19.63;;
55762;SDS011;42162;51.958;5.426;2024-01-11T09:04:40;36.75;;;20.92;;
55762;SDS011;42162;51.958;5.426;2024-01-11T09:07:08;27.92;;;17.80;;
55762;SDS011;42162;51.958;5.426;2024-01-11T09:09:35;34.50;;;19.83;;
55762;SDS011;42162;51.958;5.426;2024-01-11T09:12:18;36.47;;;19.17;;
55762;SDS011;42162;51.958;5.426;2024-01-11T09:14:47;29.80;;;18.92;;
55762;SDS011;42162;51.958;5.426;2024-01-11T09:17:14;29.67;;;19.17;;
55762;SDS011;42162;51.958;5.426;2024-01-11T09:19:44;36.00;;;20.95;;
55762;SDS011;42162;51.958;5.426;2024-01-11T09:22:11;38.00;;;20.92;;
55762;SDS011;42162;51.958;5.426;2024-01-11T09:24:39;35.45;;;20.90;;
55762;SDS011;42162;51.958;5.426;2024-01-11T09:27:06;39.97;;;21.70;;
55762;SDS011;42162;51.958;5.426;2024-01-11T09:29:33;33.78;;;21.80;;
55762;SDS011;42162;51.958;5.426;2024-01-11T09:32:00;26.45;;;17.55;;
55762;SDS011;42162;51.958;5.426;2024-01-11T09:34:28;27.70;;;17.65;;
55762;SDS011;42162;51.958;5.426;2024-01-11T09:36:55;27.95;;;17.58;;
55762;SDS011;42162;51.958;5.426;2024-01-11T09:39:26;30.63;;;18.38;;
55762;SDS011;42162;51.958;5.426;2024-01-11T09:42:07;26.77;;;17.63;;
55762;SDS011;42162;51.958;5.426;2024-01-11T09:44:38;27.67;;;17.10;;
55762;SDS011;42162;51.958;5.426;2024-01-11T09:47:08;27.98;;;17.98;;
55762;SDS011;42162;51.958;5.426;2024-01-11T09:49:42;28.67;;;18.73;;
55762;SDS011;42162;51.958;5.426;2024-01-11T09:52:12;33.15;;;19.70;;
55762;SDS011;42162;51.958;5.426;2024-01-11T09:54:42;25.00;;;16.60;;
55762;SDS011;42162;51.958;5.426;2024-01-11T09:57:09;28.80;;;18.40;;
55762;SDS011;42162;51.958;5.426;2024-01-11T09:59:37;30.08;;;18.13;;
55762;SDS011;42162;51.958;5.426;2024-01-11T10:02:05;36.65;;;21.98;;
55762;SDS011;42162;51.958;5.426;2024-01-11T10:04:36;31.98;;;19.33;;
55762;SDS011;42162;51.958;5.426;2024-01-11T10:07:04;32.22;;;20.13;;
55762;SDS011;42162;51.958;5.426;2024-01-11T10:09:33;32.58;;;20.77;;
55762;SDS011;42162;51.958;5.426;2024-01-11T10:12:00;32.30;;;20.48;;
55762;SDS011;42162;51.958;5.426;2024-01-11T10:14:27;29.77;;;19.90;;
55762;SDS011;42162;51.958;5.426;2024-01-11T10:16:54;31.60;;;19.50;;
55762;SDS011;42162;51.958;5.426;2024-01-11T10:19:22;29.00;;;17.92;;
55762;SDS011;42162;51.958;5.426;2024-01-11T10:21:49;32.30;;;19.30;;
55762;SDS011;42162;51.958;5.426;2024-01-11T10:24:17;33.72;;;19.58;;
55762;SDS011;42162;51.958;5.426;2024-01-11T10:26:45;30.73;;;18.63;;
55762;SDS011;42162;51.958;5.426;2024-01-11T10:29:13;28.02;;;16.50;;
55762;SDS011;42162;51.958;5.426;2024-01-11T10:31:40;29.50;;;18.15;;
55762;SDS011;42162;51.958;5.426;2024-01-11T10:34:07;28.10;;;16.52;;
55762;SDS011;42162;51.958;5.426;2024-01-11T10:36:35;22.40;;;14.00;;
55762;SDS011;42162;51.958;5.426;2024-01-11T10:39:03;21.83;;;12.10;;
55762;SDS011;42162;51.958;5.426;2024-01-11T10:41:40;22.15;;;12.40;;
55762;SDS011;42162;51.958;5.426;2024-01-11T10:44:15;16.30;;;9.95;;
55762;SDS011;42162;51.958;5.426;2024-01-11T10:46:47;18.30;;;10.82;;
55762;SDS011;42162;51.958;5.426;2024-01-11T10:49:19;20.48;;;11.02;;
55762;SDS011;42162;51.958;5.426;2024-01-11T10:51:53;17.90;;;10.13;;
55762;SDS011;42162;51.958;5.426;2024-01-11T10:54:26;23.55;;;11.15;;
55762;SDS011;42162;51.958;5.426;2024-01-11T10:56:54;20.65;;;11.57;;
55762;SDS011;42162;51.958;5.426;2024-01-11T10:59:22;24.05;;;13.65;;
55762;SDS011;42162;51.958;5.426;2024-01-11T11:01:55;24.90;;;12.40;;
55762;SDS011;42162;51.958;5.426;2024-01-11T11:04:25;21.73;;;11.30;;
55762;SDS011;42162;51.958;5.426;2024-01-11T11:06:56;23.10;;;12.43;;
55762;SDS011;42162;51.958;5.426;2024-01-11T11:11:56;27.63;;;10.57;;
55762;SDS011;42162;51.958;5.426;2024-01-11T11:14:25;22.30;;;11.70;;
55762;SDS011;42162;51.958;5.426;2024-01-11T11:16:52;21.38;;;10.70;;
55762;SDS011;42162;51.958;5.426;2024-01-11T11:19:20;27.05;;;12.50;;
55762;SDS011;42162;51.958;5.426;2024-01-11T11:21:48;25.85;;;12.27;;
55762;SDS011;42162;51.958;5.426;2024-01-11T11:24:15;22.75;;;11.95;;
55762;SDS011;42162;51.958;5.426;2024-01-11T11:26:43;21.02;;;11.38;;
55762;SDS011;42162;51.958;5.426;2024-01-11T11:29:10;27.50;;;12.60;;
55762;SDS011;42162;51.958;5.426;2024-01-11T11:31:44;23.40;;;11.18;;
55762;SDS011;42162;51.958;5.426;2024-01-11T11:34:14;22.70;;;11.60;;
55762;SDS011;42162;51.958;5.426;2024-01-11T11:36:42;26.65;;;11.75;;
55762;SDS011;42162;51.958;5.426;2024-01-11T11:39:13;17.15;;;10.15;;
55762;SDS011;42162;51.958;5.426;2024-01-11T11:41:41;23.38;;;12.02;;
55762;SDS011;42162;51.958;5.426;2024-01-11T11:44:12;24.58;;;11.02;;
55762;SDS011;42162;51.958;5.426;2024-01-11T11:46:42;22.55;;;12.73;;
55762;SDS011;42162;51.958;5.426;2024-01-11T11:49:10;22.75;;;12.25;;
55762;SDS011;42162;51.958;5.426;2024-01-11T11:51:40;22.80;;;10.80;;
55762;SDS011;42162;51.958;5.426;2024-01-11T11:54:10;29.83;;;14.18;;
55762;SDS011;42162;51.958;5.426;2024-01-11T11:56:37;24.48;;;12.20;;
55762;SDS011;42162;51.958;5.426;2024-01-11T11:59:05;27.27;;;13.35;;
55762;SDS011;42162;51.958;5.426;2024-01-11T12:01:34;25.77;;;11.57;;
55762;SDS011;42162;51.958;5.426;2024-01-11T12:04:02;25.33;;;12.40;;
55762;SDS011;42162;51.958;5.426;2024-01-11T12:06:29;24.60;;;12.50;;
55762;SDS011;42162;51.958;5.426;2024-01-11T12:08:56;27.33;;;11.02;;
55762;SDS011;42162;51.958;5.426;2024-01-11T12:11:24;25.98;;;12.55;;
55762;SDS011;42162;51.958;5.426;2024-01-11T12:13:53;21.80;;;10.82;;
55762;SDS011;42162;51.958;5.426;2024-01-11T12:16:22;23.83;;;12.65;;
55762;SDS011;42162;51.958;5.426;2024-01-11T12:18:50;26.73;;;12.38;;
55762;SDS011;42162;51.958;5.426;2024-01-11T12:21:19;26.02;;;11.38;;
55762;SDS011;42162;51.958;5.426;2024-01-11T12:23:46;27.52;;;12.93;;
55762;SDS011;42162;51.958;5.426;2024-01-11T12:26:16;16.73;;;10.15;;
55762;SDS011;42162;51.958;5.426;2024-01-11T12:28:50;22.83;;;10.90;;
55762;SDS011;42162;51.958;5.426;2024-01-11T12:31:17;28.38;;;12.40;;
55762;SDS011;42162;51.958;5.426;2024-01-11T12:33:46;26.02;;;12.55;;
55762;SDS011;42162;51.958;5.426;2024-01-11T12:36:15;29.10;;;13.57;;
55762;SDS011;42162;51.958;5.426;2024-01-11T12:38:46;31.38;;;13.45;;
55762;SDS011;42162;51.958;5.426;2024-01-11T12:41:19;25.58;;;13.13;;
55762;SDS011;42162;51.958;5.426;2024-01-11T12:43:50;20.47;;;11.67;;
55762;SDS011;42162;51.958;5.426;2024-01-11T12:46:18;22.20;;;11.48;;
55762;SDS011;42162;51.958;5.426;2024-01-11T12:48:45;24.33;;;12.45;;
55762;SDS011;42162;51.958;5.426;2024-01-11T12:51:15;21.58;;;11.15;;
55762;SDS011;42162;51.958;5.426;2024-01-11T12:53:48;21.65;;;11.07;;
55762;SDS011;42162;51.958;5.426;2024-01-11T12:56:16;20.85;;;10.52;;
55762;SDS011;42162;51.958;5.426;2024-01-11T12:58:44;21.13;;;11.48;;
55762;SDS011;42162;51.958;5.426;2024-01-11T13:01:13;25.90;;;12.20;;
55762;SDS011;42162;51.958;5.426;2024-01-11T13:03:43;23.25;;;12.20;;
55762;SDS011;42162;51.958;5.426;2024-01-11T13:06:14;21.20;;;11.40;;
55762;SDS011;42162;51.958;5.426;2024-01-11T13:08:42;22.67;;;12.35;;
55762;SDS011;42162;51.958;5.426;2024-01-11T13:11:10;19.58;;;11.00;;
55762;SDS011;42162;51.958;5.426;2024-01-11T13:13:41;21.52;;;11.18;;
55762;SDS011;42162;51.958;5.426;2024-01-11T13:16:08;23.23;;;12.02;;
55762;SDS011;42162;51.958;5.426;2024-01-11T13:18:41;19.88;;;10.40;;
55762;SDS011;42162;51.958;5.426;2024-01-11T13:21:09;21.02;;;11.30;;
55762;SDS011;42162;51.958;5.426;2024-01-11T13:23:36;24.25;;;12.98;;
55762;SDS011;42162;51.958;5.426;2024-01-11T13:26:05;16.48;;;10.07;;
55762;SDS011;42162;51.958;5.426;2024-01-11T13:28:33;17.13;;;9.20;;
55762;SDS011;42162;51.958;5.426;2024-01-11T13:31:00;22.25;;;12.32;;
55762;SDS011;42162;51.958;5.426;2024-01-11T13:33:29;24.05;;;12.75;;
55762;SDS011;42162;51.958;5.426;2024-01-11T13:35:56;18.27;;;8.82;;
55762;SDS011;42162;51.958;5.426;2024-01-11T13:38:24;21.42;;;10.23;;
55762;SDS011;42162;51.958;5.426;2024-01-11T13:40:51;21.45;;;10.82;;
55762;SDS011;42162;51.958;5.426;2024-01-11T13:43:19;20.73;;;10.27;;
55762;SDS011;42162;51.958;5.426;2024-01-11T13:45:46;21.92;;;11.82;;
55762;SDS011;42162;51.958;5.426;2024-01-11T13:48:13;19.73;;;10.88;;
55762;SDS011;42162;51.958;5.426;2024-01-11T13:50:41;18.33;;;9.52;;
55762;SDS011;42162;51.958;5.426;2024-01-11T13:53:09;24.25;;;12.15;;
55762;SDS011;42162;51.958;5.426;2024-01-11T13:55:36;21.23;;;11.27;;
55762;SDS011;42162;51.958;5.426;2024-01-11T13:58:07;23.10;;;11.45;;
55762;SDS011;42162;51.958;5.426;2024-01-11T14:00:35;17.83;;;9.50;;
55762;SDS011;42162;51.958;5.426;2024-01-11T14:03:02;18.83;;;8.68;;
55762;SDS011;42162;51.958;5.426;2024-01-11T14:05:33;16.95;;;10.15;;
55762;SDS011;42162;51.958;5.426;2024-01-11T14:08:00;17.90;;;9.75;;
55762;SDS011;42162;51.958;5.426;2024-01-11T14:10:28;21.48;;;9.30;;
55762;SDS011;42162;51.958;5.426;2024-01-11T14:12:55;23.27;;;11.25;;
55762;SDS011;42162;51.958;5.426;2024-01-11T14:15:22;22.77;;;10.88;;
55762;SDS011;42162;51.958;5.426;2024-01-11T14:17:50;23.10;;;10.70;;
55762;SDS011;42162;51.958;5.426;2024-01-11T14:20:17;19.98;;;10.75;;
55762;SDS011;42162;51.958;5.426;2024-01-11T14:22:45;16.23;;;8.77;;
55762;SDS011;42162;51.958;5.426;2024-01-11T14:25:19;28.40;;;11.88;;
55762;SDS011;42162;51.958;5.426;2024-01-11T14:27:47;14.27;;;8.77;;
55762;SDS011;42162;51.958;5.426;2024-01-11T14:30:15;17.33;;;9.52;;
55762;SDS011;42162;51.958;5.426;2024-01-11T14:32:43;22.15;;;11.55;;
55762;SDS011;42162;51.958;5.426;2024-01-11T14:35:12;23.98;;;11.35;;
55762;SDS011;42162;51.958;5.426;2024-01-11T14:37:40;23.25;;;11.05;;
55762;SDS011;42162;51.958;5.426;2024-01-11T14:40:08;19.70;;;10.55;;
55762;SDS011;42162;51.958;5.426;2024-01-11T14:42:37;19.90;;;10.75;;
55762;SDS011;42162;51.958;5.426;2024-01-11T14:45:05;14.55;;;9.25;;
55762;SDS011;42162;51.958;5.426;2024-01-11T14:47:33;19.30;;;10.43;;
55762;SDS011;42162;51.958;5.426;2024-01-11T14:50:01;20.05;;;10.48;;
55762;SDS011;42162;51.958;5.426;2024-01-11T14:52:31;16.98;;;9.77;;
55762;SDS011;42162;51.958;5.426;2024-01-11T14:54:59;19.35;;;10.23;;
55762;SDS011;42162;51.958;5.426;2024-01-11T14:57:26;17.42;;;9.68;;
55762;SDS011;42162;51.958;5.426;2024-01-11T14:59:53;22.15;;;10.43;;
55762;SDS011;42162;51.958;5.426;2024-01-11T15:02:21;17.77;;;9.73;;
55762;SDS011;42162;51.958;5.426;2024-01-11T15:04:48;17.40;;;10.10;;
55762;SDS011;42162;51.958;5.426;2024-01-11T15:07:16;19.48;;;9.88;;
55762;SDS011;42162;51.958;5.426;2024-01-11T15:09:43;21.35;;;10.45;;
55762;SDS011;42162;51.958;5.426;2024-01-11T15:12:10;20.13;;;10.05;;
55762;SDS011;42162;51.958;5.426;2024-01-11T15:14:37;21.17;;;12.07;;
55762;SDS011;42162;51.958;5.426;2024-01-11T15:17:04;29.17;;;12.85;;
55762;SDS011;42162;51.958;5.426;2024-01-11T15:19:32;15.63;;;8.65;;
55762;SDS011;42162;51.958;5.426;2024-01-11T15:21:59;18.55;;;10.65;;
55762;SDS011;42162;51.958;5.426;2024-01-11T15:24:26;18.60;;;11.45;;
55762;SDS011;42162;51.958;5.426;2024-01-11T15:26:55;20.70;;;10.43;;
55762;SDS011;42162;51.958;5.426;2024-01-11T15:29:22;22.50;;;11.15;;
55762;SDS011;42162;51.958;5.426;2024-01-11T15:31:49;23.17;;;12.65;;
55762;SDS011;42162;51.958;5.426;2024-01-11T15:34:17;22.48;;;12.85;;
55762;SDS011;42162;51.958;5.426;2024-01-11T15:36:46;23.80;;;11.45;;
55762;SDS011;42162;51.958;5.426;2024-01-11T15:39:13;17.52;;;11.43;;
55762;SDS011;42162;51.958;5.426;2024-01-11T15:41:54;20.52;;;11.02;;
55762;SDS011;42162;51.958;5.426;2024-01-11T15:44:24;21.65;;;10.73;;
55762;SDS011;42162;51.958;5.426;2024-01-11T15:46:54;19.38;;;11.43;;
55762;SDS011;42162;51.958;5.426;2024-01-11T15:49:22;18.83;;;11.90;;
55762;SDS011;42162;51.958;5.426;2024-01-11T15:51:50;20.35;;;11.40;;
55762;SDS011;42162;51.958;5.426;2024-01-11T15:54:17;21.95;;;12.20;;
55762;SDS011;42162;51.958;5.426;2024-01-11T15:56:48;22.92;;;12.45;;
55762;SDS011;42162;51.958;5.426;2024-01-11T15:59:15;34.17;;;12.88;;
55762;SDS011;42162;51.958;5.426;2024-01-11T16:01:43;17.08;;;10.32;;
55762;SDS011;42162;51.958;5.426;2024-01-11T16:04:25;17.60;;;10.68;;
55762;SDS011;42162;51.958;5.426;2024-01-11T16:06:53;21.08;;;11.02;;
55762;SDS011;42162;51.958;5.426;2024-01-11T16:09:22;18.60;;;11.20;;
55762;SDS011;42162;51.958;5.426;2024-01-11T16:11:50;24.05;;;12.05;;
55762;SDS011;42162;51.958;5.426;2024-01-11T16:14:17;18.50;;;11.25;;
55762;SDS011;42162;51.958;5.426;2024-01-11T16:16:45;23.70;;;12.30;;
55762;SDS011;42162;51.958;5.426;2024-01-11T16:19:13;18.52;;;10.45;;
55762;SDS011;42162;51.958;5.426;2024-01-11T16:21:40;21.35;;;12.55;;
55762;SDS011;42162;51.958;5.426;2024-01-11T16:24:09;21.70;;;11.65;;
55762;SDS011;42162;51.958;5.426;2024-01-11T16:26:36;17.33;;;9.95;;
55762;SDS011;42162;51.958;5.426;2024-01-11T16:29:09;20.48;;;12.25;;
55762;SDS011;42162;51.958;5.426;2024-01-11T16:31:36;22.67;;;13.05;;
55762;SDS011;42162;51.958;5.426;2024-01-11T16:34:03;20.27;;;11.65;;
55762;SDS011;42162;51.958;5.426;2024-01-11T16:36:30;19.00;;;11.38;;
55762;SDS011;42162;51.958;5.426;2024-01-11T16:38:57;19.38;;;11.10;;
55762;SDS011;42162;51.958;5.426;2024-01-11T16:41:29;18.10;;;9.97;;
55762;SDS011;42162;51.958;5.426;2024-01-11T16:43:57;20.40;;;11.18;;
55762;SDS011;42162;51.958;5.426;2024-01-11T16:46:24;22.23;;;11.93;;
55762;SDS011;42162;51.958;5.426;2024-01-11T16:48:52;17.48;;;10.48;;
55762;SDS011;42162;51.958;5.426;2024-01-11T16:51:19;18.35;;;10.43;;
55762;SDS011;42162;51.958;5.426;2024-01-11T16:53:46;15.48;;;9.93;;
55762;SDS011;42162;51.958;5.426;2024-01-11T16:56:14;20.50;;;11.85;;
55762;SDS011;42162;51.958;5.426;2024-01-11T16:58:41;21.42;;;12.57;;
55762;SDS011;42162;51.958;5.426;2024-01-11T17:01:11;22.52;;;12.38;;
55762;SDS011;42162;51.958;5.426;2024-01-11T17:03:39;15.73;;;10.30;;
55762;SDS011;42162;51.958;5.426;2024-01-11T17:06:06;26.10;;;14.75;;
55762;SDS011;42162;51.958;5.426;2024-01-11T17:08:34;23.48;;;13.48;;
55762;SDS011;42162;51.958;5.426;2024-01-11T17:11:01;17.35;;;11.25;;
55762;SDS011;42162;51.958;5.426;2024-01-11T17:13:28;19.00;;;11.90;;
55762;SDS011;42162;51.958;5.426;2024-01-11T17:15:55;15.80;;;9.93;;
55762;SDS011;42162;51.958;5.426;2024-01-11T17:18:22;16.75;;;11.23;;
55762;SDS011;42162;51.958;5.426;2024-01-11T17:20:50;25.17;;;14.07;;
55762;SDS011;42162;51.958;5.426;2024-01-11T17:23:17;21.02;;;12.40;;
55762;SDS011;42162;51.958;5.426;2024-01-11T17:25:45;23.00;;;13.82;;
55762;SDS011;42162;51.958;5.426;2024-01-11T17:28:12;19.92;;;11.60;;
55762;SDS011;42162;51.958;5.426;2024-01-11T17:30:40;19.85;;;12.13;;
55762;SDS011;42162;51.958;5.426;2024-01-11T17:33:07;25.02;;;14.93;;
55762;SDS011;42162;51.958;5.426;2024-01-11T17:35:35;23.10;;;13.75;;
55762;SDS011;42162;51.958;5.426;2024-01-11T17:38:02;20.75;;;12.05;;
55762;SDS011;42162;51.958;5.426;2024-01-11T17:40:30;23.10;;;13.68;;
55762;SDS011;42162;51.958;5.426;2024-01-11T17:42:57;22.05;;;13.63;;
55762;SDS011;42162;51.958;5.426;2024-01-11T17:45:25;24.65;;;13.90;;
55762;SDS011;42162;51.958;5.426;2024-01-11T17:47:52;20.67;;;12.50;;
55762;SDS011;42162;51.958;5.426;2024-01-11T17:50:20;26.08;;;14.43;;
55762;SDS011;42162;51.958;5.426;2024-01-11T17:52:48;19.42;;;11.60;;
55762;SDS011;42162;51.958;5.426;2024-01-11T17:55:17;24.13;;;14.20;;
55762;SDS011;42162;51.958;5.426;2024-01-11T17:57:45;23.63;;;15.20;;